createdAt,value
2023-05-08T00:02:47.656Z,5.70
2023-05-08T00:07:46.393Z,5.58
2023-05-08T00:12:45.466Z,5.58
2023-05-08T00:17:44.377Z,5.66
2023-05-08T00:22:43.392Z,5.69
2023-05-08T00:27:42.307Z,5.67
2023-05-08T00:32:41.317Z,5.66
2023-05-08T00:37:40.164Z,5.58
2023-05-08T00:42:39.156Z,5.55
2023-05-08T00:47:38.149Z,5.43
2023-05-08T00:52:36.937Z,5.34
2023-05-08T00:57:35.876Z,5.18
2023-05-08T01:02:34.918Z,5.01
2023-05-08T01:07:33.861Z,5.09
2023-05-08T01:12:32.775Z,5.09
2023-05-08T01:17:31.798Z,5.04
2023-05-08T01:22:30.656Z,4.98
2023-05-08T01:27:29.546Z,4.97
2023-05-08T01:32:28.597Z,4.97
2023-05-08T01:37:27.510Z,4.98
2023-05-08T01:42:26.454Z,4.93
2023-05-08T01:47:25.439Z,4.74
2023-05-08T01:52:24.346Z,4.75
2023-05-08T01:57:23.269Z,4.77
2023-05-08T02:02:22.282Z,4.75
2023-05-08T02:07:21.174Z,4.77
2023-05-08T02:12:20.139Z,4.72
2023-05-08T02:17:19.177Z,4.74
2023-05-08T02:22:18.184Z,4.69
2023-05-08T02:27:17.054Z,4.57
2023-05-08T02:32:16.076Z,4.43
2023-05-08T02:37:14.951Z,4.34
2023-05-08T02:42:13.908Z,4.28
2023-05-08T02:47:12.762Z,4.23
2023-05-08T02:52:11.806Z,4.31
2023-05-08T02:57:10.741Z,4.34
2023-05-08T03:02:09.667Z,4.31
2023-05-08T03:07:08.719Z,4.35
2023-05-08T03:12:07.652Z,4.36
2023-05-08T03:17:06.498Z,4.35
2023-05-08T03:22:05.519Z,4.28
2023-05-08T03:27:04.462Z,4.08
2023-05-08T03:32:03.450Z,4.00
2023-05-08T03:37:02.206Z,4.00
2023-05-08T03:42:01.244Z,4.00
2023-05-08T03:47:00.283Z,4.08
2023-05-08T03:51:59.080Z,4.06
2023-05-08T03:56:57.998Z,3.96
2023-05-08T04:01:57.050Z,3.94
2023-05-08T04:06:55.938Z,4.02
2023-05-08T04:11:54.932Z,4.02
2023-05-08T04:16:53.885Z,4.02
2023-05-08T04:21:52.868Z,3.99
2023-05-08T04:26:51.811Z,3.92
2023-05-08T04:31:53.095Z,4.03
2023-05-08T04:36:49.758Z,4.13
2023-05-08T04:41:48.694Z,4.35
2023-05-08T04:46:47.652Z,4.45
2023-05-08T04:51:46.784Z,4.54
2023-05-08T04:56:46.224Z,5.00
2023-05-08T05:01:44.573Z,5.24
2023-05-08T05:06:43.544Z,5.27
2023-05-08T05:11:42.419Z,5.34
2023-05-08T05:16:41.363Z,5.50
2023-05-08T05:21:40.556Z,5.72
2023-05-08T05:26:40.142Z,6.47
2023-05-08T05:31:39.164Z,6.86
2023-05-08T05:36:37.197Z,7.24
2023-05-08T05:41:36.024Z,8.67
2023-05-08T05:46:35.049Z,9.66
2023-05-08T05:51:33.981Z,9.15
2023-05-08T05:56:33.157Z,8.46
2023-05-08T06:01:31.907Z,8.20
2023-05-08T06:06:30.780Z,8.29
2023-05-08T06:11:29.798Z,8.38
2023-05-08T06:16:28.794Z,8.59
2023-05-08T06:21:27.804Z,8.78
2023-05-08T06:26:27.086Z,8.95
2023-05-08T06:31:26.440Z,9.08
2023-05-08T06:36:25.125Z,9.32
2023-05-08T06:41:23.460Z,9.47
2023-05-08T06:46:22.465Z,9.62
2023-05-08T06:51:21.596Z,9.77
2023-05-08T06:56:20.500Z,9.98
2023-05-08T07:01:19.459Z,10.06
2023-05-08T07:06:18.116Z,10.16
2023-05-08T07:11:17.253Z,10.34
2023-05-08T07:16:16.095Z,10.46
2023-05-08T07:21:16.063Z,10.68
2023-05-08T07:26:13.975Z,10.82
2023-05-08T07:31:12.905Z,11.03
2023-05-08T07:36:12.056Z,11.28
2023-05-08T07:41:10.935Z,11.34
2023-05-08T07:46:09.727Z,11.51
2023-05-08T07:51:08.611Z,11.70
2023-05-08T07:56:07.632Z,11.89
2023-05-08T08:01:06.706Z,12.13
2023-05-08T08:06:05.542Z,12.22
2023-05-08T08:11:04.456Z,12.53
2023-05-08T08:16:03.373Z,12.76
2023-05-08T08:21:02.419Z,12.95
2023-05-08T08:26:01.369Z,12.90
2023-05-08T08:31:01.651Z,12.99
2023-05-08T08:35:59.152Z,13.05
2023-05-08T08:40:58.238Z,13.14
2023-05-08T08:45:57.349Z,13.42
2023-05-08T08:50:56.019Z,13.73
2023-05-08T08:55:54.938Z,13.73
2023-05-08T09:00:54.011Z,13.90
2023-05-08T09:05:52.999Z,14.09
2023-05-08T09:10:52.074Z,14.30
2023-05-08T09:15:53.557Z,14.30
2023-05-08T09:20:50.061Z,14.37
2023-05-08T09:25:49.137Z,14.55
2023-05-08T09:30:47.595Z,14.74
2023-05-08T09:35:46.529Z,14.83
2023-05-08T09:40:45.448Z,14.79
2023-05-08T09:45:44.560Z,14.93
2023-05-08T09:50:43.692Z,15.08
2023-05-08T09:55:42.413Z,15.17
2023-05-08T10:00:41.269Z,15.15
2023-05-08T10:05:40.217Z,15.35
2023-05-08T10:10:39.316Z,15.59
2023-05-08T10:15:38.100Z,15.65
2023-05-08T10:20:37.063Z,15.58
2023-05-08T10:25:36.012Z,15.91
2023-05-08T10:30:34.938Z,15.81
2023-05-08T10:35:34.027Z,15.81
2023-05-08T10:40:32.910Z,15.98
2023-05-08T10:45:31.874Z,15.99
2023-05-08T10:50:30.870Z,16.37
2023-05-08T10:55:29.737Z,16.65
2023-05-08T11:00:28.895Z,16.42
2023-05-08T11:05:28.659Z,16.39
2023-05-08T11:10:27.701Z,16.52
2023-05-08T11:15:25.815Z,16.69
2023-05-08T11:20:27.823Z,16.61
2023-05-08T11:25:23.544Z,16.79
2023-05-08T11:30:22.475Z,16.67
2023-05-08T11:35:21.714Z,16.65
2023-05-08T11:40:20.486Z,16.79
2023-05-08T11:45:19.235Z,16.91
2023-05-08T11:50:18.322Z,16.95
2023-05-08T11:55:17.102Z,16.99
2023-05-08T12:00:16.585Z,16.87
2023-05-08T12:05:16.105Z,17.02
2023-05-08T12:10:14.742Z,17.04
2023-05-08T12:15:12.967Z,17.06
2023-05-08T12:20:12.286Z,17.13
2023-05-08T12:25:11.353Z,17.07
2023-05-08T12:30:09.735Z,17.12
2023-05-08T12:35:13.349Z,17.16
2023-05-08T12:40:07.663Z,17.32
2023-05-08T12:45:06.563Z,17.32
2023-05-08T12:50:05.519Z,17.31
2023-05-08T12:55:04.697Z,17.20
2023-05-08T13:00:04.740Z,17.16
2023-05-08T13:05:03.203Z,17.07
2023-05-08T13:10:01.383Z,16.91
2023-05-08T13:15:00.370Z,16.76
2023-05-08T13:19:59.265Z,16.74
2023-05-08T13:24:58.104Z,16.98
2023-05-08T13:29:57.358Z,17.14
2023-05-08T13:34:58.818Z,17.13
2023-05-08T13:39:55.072Z,17.09
2023-05-08T13:44:53.952Z,17.14
2023-05-08T13:49:52.938Z,17.25
2023-05-08T13:54:51.917Z,17.19
2023-05-08T13:59:51.628Z,17.19
2023-05-08T14:04:51.211Z,17.46
2023-05-08T14:09:48.810Z,17.69
2023-05-08T14:14:47.765Z,17.72
2023-05-08T14:19:46.682Z,17.91
2023-05-08T14:24:46.175Z,17.86
2023-05-08T14:29:44.527Z,17.84
2023-05-08T14:34:43.660Z,17.86
2023-05-08T14:39:42.786Z,17.83
2023-05-08T14:44:41.692Z,17.87
2023-05-08T14:49:40.328Z,17.68
2023-05-08T14:54:39.592Z,17.59
2023-05-08T15:11:26.387Z,17.72
2023-05-08T15:11:31.570Z,17.79
2023-05-08T15:16:30.644Z,17.83
2023-05-08T15:21:29.847Z,17.78
2023-05-08T15:26:28.518Z,17.78
2023-05-08T15:31:27.421Z,17.79
2023-05-08T15:36:28.261Z,17.81
2023-05-08T15:41:25.286Z,17.79
2023-05-08T15:46:24.458Z,17.75
2023-05-08T15:51:23.201Z,17.78
2023-05-08T15:56:22.300Z,17.83
2023-05-08T16:01:21.191Z,17.81
2023-05-08T16:06:20.058Z,17.71
2023-05-08T16:11:19.032Z,17.72
2023-05-08T16:16:18.056Z,17.63
2023-05-08T16:21:17.038Z,17.53
2023-05-08T16:26:15.966Z,17.47
2023-05-08T16:31:15.166Z,17.43
2023-05-08T16:36:13.912Z,17.35
2023-05-08T16:41:12.831Z,17.24
2023-05-08T16:46:11.825Z,17.16
2023-05-08T16:51:10.753Z,17.10
2023-05-08T16:56:09.590Z,17.07
2023-05-08T17:01:08.784Z,16.99
2023-05-08T17:06:07.529Z,16.95
2023-05-08T17:11:06.641Z,16.82
2023-05-08T17:16:05.434Z,16.74
2023-05-08T17:21:04.352Z,16.62
2023-05-08T17:26:03.299Z,16.52
2023-05-08T17:31:02.233Z,16.42
2023-05-08T17:36:01.187Z,16.28
2023-05-08T17:41:00.186Z,16.16
2023-05-08T17:45:59.154Z,16.00
2023-05-08T17:50:57.971Z,15.90
2023-05-08T17:55:56.943Z,15.78
2023-05-08T18:00:55.952Z,15.68
2023-05-08T18:05:54.790Z,15.60
2023-05-08T18:10:53.829Z,15.45
2023-05-08T18:15:52.799Z,15.33
2023-05-08T18:20:51.884Z,15.25
2023-05-08T18:25:50.681Z,15.08
2023-05-08T18:30:49.536Z,14.96
2023-05-08T18:35:48.725Z,14.86
2023-05-08T18:40:47.514Z,14.69
2023-05-08T18:45:46.472Z,14.55
2023-05-08T18:56:38.250Z,14.23
2023-05-08T19:01:38.289Z,14.03
2023-05-08T19:06:37.218Z,13.94
2023-05-08T19:11:36.115Z,13.86
2023-05-08T19:16:35.041Z,13.65
2023-05-08T19:21:34.049Z,13.46
2023-05-08T19:26:32.965Z,13.36
2023-05-08T19:31:31.977Z,13.27
2023-05-08T19:36:30.841Z,13.13
2023-05-08T19:41:29.952Z,13.05
2023-05-08T19:46:28.864Z,12.88
2023-05-08T19:51:27.861Z,12.80
2023-05-08T19:56:26.706Z,12.72
2023-05-08T20:01:25.650Z,12.62
2023-05-08T20:06:24.573Z,12.55
2023-05-08T20:11:23.589Z,12.48
2023-05-08T20:16:22.683Z,12.44
2023-05-08T20:21:21.484Z,12.38
2023-05-08T20:26:20.673Z,12.30
2023-05-08T20:31:19.399Z,12.17
2023-05-08T20:36:18.285Z,12.08
2023-05-08T20:41:17.329Z,11.97
2023-05-08T20:46:16.211Z,11.80
2023-05-08T20:51:15.989Z,11.69
2023-05-08T20:56:15.729Z,11.52
2023-05-08T21:01:12.983Z,11.40
2023-05-08T21:06:12.030Z,11.18
2023-05-08T21:11:10.879Z,10.94
2023-05-08T21:16:09.888Z,10.64
2023-05-08T21:21:08.784Z,10.75
2023-05-08T21:26:07.738Z,10.80
2023-05-08T21:31:06.643Z,10.82
2023-05-08T21:36:05.733Z,10.82
2023-05-08T21:41:04.595Z,10.78
2023-05-08T21:46:03.529Z,10.79
2023-05-08T21:51:02.627Z,10.76
2023-05-08T21:56:01.585Z,10.72
2023-05-08T22:01:00.422Z,10.70
2023-05-08T22:05:59.353Z,10.70
2023-05-08T22:10:58.344Z,10.70
2023-05-08T22:15:57.208Z,10.64
2023-05-08T22:20:56.218Z,10.64
2023-05-08T22:25:55.079Z,10.43
2023-05-08T22:30:54.069Z,10.45
2023-05-08T22:35:53.016Z,10.45
